sensor_id;sensor_type;location;lat;lon;timestamp;temperature;humidity
33095;DHT22;19459;53.044;8.910;2024-01-25T00:02:18;7.90;99.90
33095;DHT22;19459;53.044;8.910;2024-01-25T00:04:44;7.90;99.90
33095;DHT22;19459;53.044;8.910;2024-01-25T00:07:10;7.90;99.90
33095;DHT22;19459;53.044;8.910;2024-01-25T00:09:38;7.90;99.90
33095;DHT22;19459;53.044;8.910;2024-01-25T00:12:04;7.90;99.90
33095;DHT22;19459;53.044;8.910;2024-01-25T00:14:31;7.90;99.90
33095;DHT22;19459;53.044;8.910;2024-01-25T00:16:56;7.90;99.90
33095;DHT22;19459;53.044;8.910;2024-01-25T00:19:22;8.00;99.90
33095;DHT22;19459;53.044;8.910;2024-01-25T00:21:48;8.00;99.90
33095;DHT22;19459;53.044;8.910;2024-01-25T00:24:14;8.00;99.90
33095;DHT22;19459;53.044;8.910;2024-01-25T00:26:40;8.00;99.90
33095;DHT22;19459;53.044;8.910;2024-01-25T00:29:09;8.10;99.90
33095;DHT22;19459;53.044;8.910;2024-01-25T00:31:34;8.10;99.90
33095;DHT22;19459;53.044;8.910;2024-01-25T00:34:01;8.10;99.90
33095;DHT22;19459;53.044;8.910;2024-01-25T00:36:27;8.10;99.90
33095;DHT22;19459;53.044;8.910;2024-01-25T00:38:54;8.10;99.90
33095;DHT22;19459;53.044;8.910;2024-01-25T00:41:20;8.10;99.90
33095;DHT22;19459;53.044;8.910;2024-01-25T00:43:46;8.10;99.90
33095;DHT22;19459;53.044;8.910;2024-01-25T00:46:12;8.10;99.90
33095;DHT22;19459;53.044;8.910;2024-01-25T00:48:39;8.10;99.90
33095;DHT22;19459;53.044;8.910;2024-01-25T00:51:13;8.10;99.90
33095;DHT22;19459;53.044;8.910;2024-01-25T00:53:41;8.10;99.90
33095;DHT22;19459;53.044;8.910;2024-01-25T00:56:08;8.00;99.90
33095;DHT22;19459;53.044;8.910;2024-01-25T00:58:35;7.90;99.90
33095;DHT22;19459;53.044;8.910;2024-01-25T01:01:01;8.00;99.90
33095;DHT22;19459;53.044;8.910;2024-01-25T01:03:27;7.90;99.90
33095;DHT22;19459;53.044;8.910;2024-01-25T01:05:53;7.90;99.90
33095;DHT22;19459;53.044;8.910;2024-01-25T01:08:19;7.80;99.90
33095;DHT22;19459;53.044;8.910;2024-01-25T01:10:46;7.80;99.90
33095;DHT22;19459;53.044;8.910;2024-01-25T01:13:12;7.80;99.90
33095;DHT22;19459;53.044;8.910;2024-01-25T01:15:38;7.70;99.90
33095;DHT22;19459;53.044;8.910;2024-01-25T01:18:04;7.70;99.90
33095;DHT22;19459;53.044;8.910;2024-01-25T01:20:31;7.70;99.90
33095;DHT22;19459;53.044;8.910;2024-01-25T01:22:56;7.70;99.90
33095;DHT22;19459;53.044;8.910;2024-01-25T01:25:22;7.70;99.90
33095;DHT22;19459;53.044;8.910;2024-01-25T01:27:48;7.70;99.90
33095;DHT22;19459;53.044;8.910;2024-01-25T01:30:14;7.60;99.90
33095;DHT22;19459;53.044;8.910;2024-01-25T01:32:40;7.60;99.90
33095;DHT22;19459;53.044;8.910;2024-01-25T01:35:06;7.70;99.90
33095;DHT22;19459;53.044;8.910;2024-01-25T01:37:32;7.60;99.90
33095;DHT22;19459;53.044;8.910;2024-01-25T01:40:00;7.70;99.90
33095;DHT22;19459;53.044;8.910;2024-01-25T01:42:27;7.70;99.90
33095;DHT22;19459;53.044;8.910;2024-01-25T01:44:53;7.70;99.90
33095;DHT22;19459;53.044;8.910;2024-01-25T01:47:19;7.60;99.90
33095;DHT22;19459;53.044;8.910;2024-01-25T01:49:45;7.60;99.90
33095;DHT22;19459;53.044;8.910;2024-01-25T01:52:12;7.60;99.90
33095;DHT22;19459;53.044;8.910;2024-01-25T01:54:39;7.50;99.90
33095;DHT22;19459;53.044;8.910;2024-01-25T01:57:07;7.50;99.90
33095;DHT22;19459;53.044;8.910;2024-01-25T01:59:33;7.50;99.90
33095;DHT22;19459;53.044;8.910;2024-01-25T02:01:59;7.50;99.90
33095;DHT22;19459;53.044;8.910;2024-01-25T02:04:25;7.50;99.90
33095;DHT22;19459;53.044;8.910;2024-01-25T02:06:51;7.40;99.90
33095;DHT22;19459;53.044;8.910;2024-01-25T02:09:17;7.40;99.90
33095;DHT22;19459;53.044;8.910;2024-01-25T02:11:43;7.50;99.90
33095;DHT22;19459;53.044;8.910;2024-01-25T02:14:09;7.40;99.90
33095;DHT22;19459;53.044;8.910;2024-01-25T02:16:37;7.50;99.90
33095;DHT22;19459;53.044;8.910;2024-01-25T02:19:03;7.40;99.90
33095;DHT22;19459;53.044;8.910;2024-01-25T02:21:29;7.50;99.90
33095;DHT22;19459;53.044;8.910;2024-01-25T02:23:55;7.40;99.90
33095;DHT22;19459;53.044;8.910;2024-01-25T02:26:21;7.40;99.90
33095;DHT22;19459;53.044;8.910;2024-01-25T02:28:47;7.40;99.90
33095;DHT22;19459;53.044;8.910;2024-01-25T02:31:13;7.40;99.90
33095;DHT22;19459;53.044;8.910;2024-01-25T02:33:38;7.40;99.90
33095;DHT22;19459;53.044;8.910;2024-01-25T02:36:05;7.40;99.90
33095;DHT22;19459;53.044;8.910;2024-01-25T02:38:31;7.40;99.90
33095;DHT22;19459;53.044;8.910;2024-01-25T02:40:56;7.30;99.90
33095;DHT22;19459;53.044;8.910;2024-01-25T02:43:22;7.40;99.90
33095;DHT22;19459;53.044;8.910;2024-01-25T02:45:48;7.40;99.90
33095;DHT22;19459;53.044;8.910;2024-01-25T02:48:14;7.30;99.90
33095;DHT22;19459;53.044;8.910;2024-01-25T02:50:40;7.30;99.90
33095;DHT22;19459;53.044;8.910;2024-01-25T02:53:09;7.30;99.90
33095;DHT22;19459;53.044;8.910;2024-01-25T02:55:35;7.30;99.90
33095;DHT22;19459;53.044;8.910;2024-01-25T02:58:01;7.20;99.90
33095;DHT22;19459;53.044;8.910;2024-01-25T03:00:27;7.20;99.90
33095;DHT22;19459;53.044;8.910;2024-01-25T03:02:52;7.20;99.90
33095;DHT22;19459;53.044;8.910;2024-01-25T03:05:18;7.20;99.90
33095;DHT22;19459;53.044;8.910;2024-01-25T03:07:44;7.20;99.90
33095;DHT22;19459;53.044;8.910;2024-01-25T03:10:10;7.20;99.90
33095;DHT22;19459;53.044;8.910;2024-01-25T03:12:36;7.20;99.90
33095;DHT22;19459;53.044;8.910;2024-01-25T03:15:03;7.20;99.90
33095;DHT22;19459;53.044;8.910;2024-01-25T03:17:29;7.20;99.90
33095;DHT22;19459;53.044;8.910;2024-01-25T03:19:54;7.20;99.90
33095;DHT22;19459;53.044;8.910;2024-01-25T03:22:20;7.10;99.90
33095;DHT22;19459;53.044;8.910;2024-01-25T03:24:47;7.10;99.90
33095;DHT22;19459;53.044;8.910;2024-01-25T03:27:13;7.10;99.90
33095;DHT22;19459;53.044;8.910;2024-01-25T03:29:43;7.10;99.90
33095;DHT22;19459;53.044;8.910;2024-01-25T03:32:12;7.00;99.90
33095;DHT22;19459;53.044;8.910;2024-01-25T03:34:38;7.10;99.90
33095;DHT22;19459;53.044;8.910;2024-01-25T03:37:04;7.00;99.90
33095;DHT22;19459;53.044;8.910;2024-01-25T03:39:30;7.00;99.90
33095;DHT22;19459;53.044;8.910;2024-01-25T03:41:56;7.00;99.90
33095;DHT22;19459;53.044;8.910;2024-01-25T03:44:22;7.00;99.90
33095;DHT22;19459;53.044;8.910;2024-01-25T03:46:47;6.90;99.90
33095;DHT22;19459;53.044;8.910;2024-01-25T03:49:13;6.90;99.90
33095;DHT22;19459;53.044;8.910;2024-01-25T03:51:39;6.90;99.90
33095;DHT22;19459;53.044;8.910;2024-01-25T03:54:05;6.90;99.90
33095;DHT22;19459;53.044;8.910;2024-01-25T03:56:32;6.90;99.90
33095;DHT22;19459;53.044;8.910;2024-01-25T03:58:58;6.90;99.90
33095;DHT22;19459;53.044;8.910;2024-01-25T04:01:26;6.90;99.90
33095;DHT22;19459;53.044;8.910;2024-01-25T04:03:51;6.90;99.90
33095;DHT22;19459;53.044;8.910;2024-01-25T04:06:17;6.90;99.90
33095;DHT22;19459;53.044;8.910;2024-01-25T04:08:43;6.90;99.90
33095;DHT22;19459;53.044;8.910;2024-01-25T04:11:09;6.90;99.90
33095;DHT22;19459;53.044;8.910;2024-01-25T04:13:38;6.90;99.90
33095;DHT22;19459;53.044;8.910;2024-01-25T04:16:04;6.90;99.90
33095;DHT22;19459;53.044;8.910;2024-01-25T04:18:30;6.90;99.90
33095;DHT22;19459;53.044;8.910;2024-01-25T04:20:56;6.90;99.90
33095;DHT22;19459;53.044;8.910;2024-01-25T04:23:22;6.80;99.90
33095;DHT22;19459;53.044;8.910;2024-01-25T04:25:48;6.90;99.90
33095;DHT22;19459;53.044;8.910;2024-01-25T04:28:14;6.90;99.90
33095;DHT22;19459;53.044;8.910;2024-01-25T04:30:40;6.80;99.90
33095;DHT22;19459;53.044;8.910;2024-01-25T04:33:06;6.90;99.90
33095;DHT22;19459;53.044;8.910;2024-01-25T04:35:31;6.90;99.90
33095;DHT22;19459;53.044;8.910;2024-01-25T04:37:57;6.90;99.90
33095;DHT22;19459;53.044;8.910;2024-01-25T04:40:23;6.90;99.90
33095;DHT22;19459;53.044;8.910;2024-01-25T04:42:49;6.90;99.90
33095;DHT22;19459;53.044;8.910;2024-01-25T04:45:15;6.90;99.90
33095;DHT22;19459;53.044;8.910;2024-01-25T04:50:26;6.90;99.90
33095;DHT22;19459;53.044;8.910;2024-01-25T04:52:52;6.90;99.90
33095;DHT22;19459;53.044;8.910;2024-01-25T04:55:18;6.90;99.90
33095;DHT22;19459;53.044;8.910;2024-01-25T04:57:45;6.90;99.90
33095;DHT22;19459;53.044;8.910;2024-01-25T05:00:11;6.80;99.90
33095;DHT22;19459;53.044;8.910;2024-01-25T05:02:37;6.80;99.90
33095;DHT22;19459;53.044;8.910;2024-01-25T05:05:03;6.80;99.90
33095;DHT22;19459;53.044;8.910;2024-01-25T05:07:29;6.80;99.90
33095;DHT22;19459;53.044;8.910;2024-01-25T05:09:55;6.70;99.90
33095;DHT22;19459;53.044;8.910;2024-01-25T05:12:21;6.70;99.90
33095;DHT22;19459;53.044;8.910;2024-01-25T05:14:47;6.80;99.90
33095;DHT22;19459;53.044;8.910;2024-01-25T05:17:12;6.70;99.90
33095;DHT22;19459;53.044;8.910;2024-01-25T05:19:38;6.70;99.90
33095;DHT22;19459;53.044;8.910;2024-01-25T05:22:04;6.70;99.90
33095;DHT22;19459;53.044;8.910;2024-01-25T05:24:32;6.70;99.90
33095;DHT22;19459;53.044;8.910;2024-01-25T05:26:59;6.80;99.90
33095;DHT22;19459;53.044;8.910;2024-01-25T05:29:25;6.70;99.90
33095;DHT22;19459;53.044;8.910;2024-01-25T05:31:50;6.70;99.90
33095;DHT22;19459;53.044;8.910;2024-01-25T05:34:16;6.70;99.90
33095;DHT22;19459;53.044;8.910;2024-01-25T05:36:42;6.70;99.90
33095;DHT22;19459;53.044;8.910;2024-01-25T05:39:08;6.70;99.90
33095;DHT22;19459;53.044;8.910;2024-01-25T05:41:34;6.70;99.90
33095;DHT22;19459;53.044;8.910;2024-01-25T05:44:00;6.70;99.90
33095;DHT22;19459;53.044;8.910;2024-01-25T05:46:29;6.70;99.90
33095;DHT22;19459;53.044;8.910;2024-01-25T05:48:54;6.70;99.90
33095;DHT22;19459;53.044;8.910;2024-01-25T05:51:20;6.70;99.90
33095;DHT22;19459;53.044;8.910;2024-01-25T05:53:46;6.70;99.90
33095;DHT22;19459;53.044;8.910;2024-01-25T05:56:12;6.70;99.90
33095;DHT22;19459;53.044;8.910;2024-01-25T05:58:38;6.80;99.90
33095;DHT22;19459;53.044;8.910;2024-01-25T06:01:03;6.80;99.90
33095;DHT22;19459;53.044;8.910;2024-01-25T06:03:29;6.90;99.90
33095;DHT22;19459;53.044;8.910;2024-01-25T06:05:55;6.90;99.90
33095;DHT22;19459;53.044;8.910;2024-01-25T06:08:21;7.00;99.90
33095;DHT22;19459;53.044;8.910;2024-01-25T06:10:47;6.90;99.90
33095;DHT22;19459;53.044;8.910;2024-01-25T06:13:13;6.90;99.90
33095;DHT22;19459;53.044;8.910;2024-01-25T06:15:40;6.90;99.90
33095;DHT22;19459;53.044;8.910;2024-01-25T06:18:06;6.90;99.90
33095;DHT22;19459;53.044;8.910;2024-01-25T06:20:31;6.90;99.90
33095;DHT22;19459;53.044;8.910;2024-01-25T06:22:57;6.90;99.90
33095;DHT22;19459;53.044;8.910;2024-01-25T06:25:23;7.00;99.90
33095;DHT22;19459;53.044;8.910;2024-01-25T06:27:49;6.90;99.90
33095;DHT22;19459;53.044;8.910;2024-01-25T06:30:15;6.90;99.90
33095;DHT22;19459;53.044;8.910;2024-01-25T06:32:41;6.90;99.90
33095;DHT22;19459;53.044;8.910;2024-01-25T06:35:07;6.90;99.90
33095;DHT22;19459;53.044;8.910;2024-01-25T06:37:33;6.90;99.90
33095;DHT22;19459;53.044;8.910;2024-01-25T06:39:59;6.90;99.90
33095;DHT22;19459;53.044;8.910;2024-01-25T06:42:25;6.90;99.90
33095;DHT22;19459;53.044;8.910;2024-01-25T06:44:50;6.90;99.90
33095;DHT22;19459;53.044;8.910;2024-01-25T06:47:16;6.80;99.90
33095;DHT22;19459;53.044;8.910;2024-01-25T06:49:42;6.80;99.90
33095;DHT22;19459;53.044;8.910;2024-01-25T06:52:08;6.80;99.90
33095;DHT22;19459;53.044;8.910;2024-01-25T06:54:33;6.80;99.90
33095;DHT22;19459;53.044;8.910;2024-01-25T06:56:59;6.80;99.90
33095;DHT22;19459;53.044;8.910;2024-01-25T06:59:25;6.80;99.90
33095;DHT22;19459;53.044;8.910;2024-01-25T07:01:51;6.80;99.90
33095;DHT22;19459;53.044;8.910;2024-01-25T07:04:16;6.80;99.90
33095;DHT22;19459;53.044;8.910;2024-01-25T07:06:42;6.80;99.90
33095;DHT22;19459;53.044;8.910;2024-01-25T07:09:08;6.80;99.90
33095;DHT22;19459;53.044;8.910;2024-01-25T07:11:34;6.80;99.90
33095;DHT22;19459;53.044;8.910;2024-01-25T07:13:59;6.80;99.90
33095;DHT22;19459;53.044;8.910;2024-01-25T07:16:25;6.80;99.90
33095;DHT22;19459;53.044;8.910;2024-01-25T07:18:51;6.80;99.90
33095;DHT22;19459;53.044;8.910;2024-01-25T07:21:17;6.80;99.90
33095;DHT22;19459;53.044;8.910;2024-01-25T07:23:42;6.90;99.90
33095;DHT22;19459;53.044;8.910;2024-01-25T07:26:08;6.90;99.90
33095;DHT22;19459;53.044;8.910;2024-01-25T07:28:34;6.80;99.90
33095;DHT22;19459;53.044;8.910;2024-01-25T07:31:00;6.80;99.90
33095;DHT22;19459;53.044;8.910;2024-01-25T07:33:26;6.80;99.90
33095;DHT22;19459;53.044;8.910;2024-01-25T07:35:52;6.80;99.90
33095;DHT22;19459;53.044;8.910;2024-01-25T07:38:18;6.80;99.90
33095;DHT22;19459;53.044;8.910;2024-01-25T07:40:44;6.80;99.90
33095;DHT22;19459;53.044;8.910;2024-01-25T07:43:10;6.90;99.90
33095;DHT22;19459;53.044;8.910;2024-01-25T07:45:35;6.90;99.90
33095;DHT22;19459;53.044;8.910;2024-01-25T07:48:01;6.80;99.90
33095;DHT22;19459;53.044;8.910;2024-01-25T07:50:27;6.80;99.90
33095;DHT22;19459;53.044;8.910;2024-01-25T07:52:54;6.80;99.90
33095;DHT22;19459;53.044;8.910;2024-01-25T07:55:20;6.80;99.90
33095;DHT22;19459;53.044;8.910;2024-01-25T07:57:46;6.80;99.90
33095;DHT22;19459;53.044;8.910;2024-01-25T08:00:12;6.80;99.90
33095;DHT22;19459;53.044;8.910;2024-01-25T08:02:38;6.80;99.90
33095;DHT22;19459;53.044;8.910;2024-01-25T08:05:08;6.80;99.90
33095;DHT22;19459;53.044;8.910;2024-01-25T08:07:35;6.80;99.90
33095;DHT22;19459;53.044;8.910;2024-01-25T08:10:03;6.80;99.90
33095;DHT22;19459;53.044;8.910;2024-01-25T08:12:30;6.80;99.90
33095;DHT22;19459;53.044;8.910;2024-01-25T08:14:56;6.90;99.90
33095;DHT22;19459;53.044;8.910;2024-01-25T08:17:21;6.90;99.90
33095;DHT22;19459;53.044;8.910;2024-01-25T08:19:47;6.90;99.90
33095;DHT22;19459;53.044;8.910;2024-01-25T08:22:13;7.00;99.90
33095;DHT22;19459;53.044;8.910;2024-01-25T08:24:39;6.90;99.90
33095;DHT22;19459;53.044;8.910;2024-01-25T08:27:06;6.90;99.90
33095;DHT22;19459;53.044;8.910;2024-01-25T08:29:33;6.90;99.90
33095;DHT22;19459;53.044;8.910;2024-01-25T08:31:59;6.90;99.90
33095;DHT22;19459;53.044;8.910;2024-01-25T08:34:24;6.90;99.90
33095;DHT22;19459;53.044;8.910;2024-01-25T08:36:50;7.00;99.90
33095;DHT22;19459;53.044;8.910;2024-01-25T08:39:16;7.00;99.90
33095;DHT22;19459;53.044;8.910;2024-01-25T08:41:42;7.00;99.90
33095;DHT22;19459;53.044;8.910;2024-01-25T08:44:08;7.00;99.90
33095;DHT22;19459;53.044;8.910;2024-01-25T08:46:34;7.00;99.90
33095;DHT22;19459;53.044;8.910;2024-01-25T08:49:00;7.00;99.90
33095;DHT22;19459;53.044;8.910;2024-01-25T08:51:25;7.00;99.90
33095;DHT22;19459;53.044;8.910;2024-01-25T08:53:51;7.00;99.90
33095;DHT22;19459;53.044;8.910;2024-01-25T08:56:17;7.10;99.90
33095;DHT22;19459;53.044;8.910;2024-01-25T08:58:43;7.10;99.90
33095;DHT22;19459;53.044;8.910;2024-01-25T09:01:09;7.10;99.90
33095;DHT22;19459;53.044;8.910;2024-01-25T09:03:36;7.10;99.90
33095;DHT22;19459;53.044;8.910;2024-01-25T09:06:02;7.10;99.90
33095;DHT22;19459;53.044;8.910;2024-01-25T09:08:31;7.10;99.90
33095;DHT22;19459;53.044;8.910;2024-01-25T09:10:58;7.20;99.90
33095;DHT22;19459;53.044;8.910;2024-01-25T09:13:24;7.20;99.90
33095;DHT22;19459;53.044;8.910;2024-01-25T09:15:50;7.20;99.90
33095;DHT22;19459;53.044;8.910;2024-01-25T09:18:15;7.20;99.90
33095;DHT22;19459;53.044;8.910;2024-01-25T09:20:41;7.20;99.90
33095;DHT22;19459;53.044;8.910;2024-01-25T09:23:13;7.30;99.90
33095;DHT22;19459;53.044;8.910;2024-01-25T09:25:43;7.30;99.90
33095;DHT22;19459;53.044;8.910;2024-01-25T09:28:10;7.40;99.90
33095;DHT22;19459;53.044;8.910;2024-01-25T09:30:40;7.50;99.90
33095;DHT22;19459;53.044;8.910;2024-01-25T09:33:06;7.50;99.90
33095;DHT22;19459;53.044;8.910;2024-01-25T09:35:33;7.50;99.90
33095;DHT22;19459;53.044;8.910;2024-01-25T09:37:59;7.50;99.90
33095;DHT22;19459;53.044;8.910;2024-01-25T09:40:25;7.50;99.90
33095;DHT22;19459;53.044;8.910;2024-01-25T09:42:52;7.60;99.90
33095;DHT22;19459;53.044;8.910;2024-01-25T09:45:18;7.60;99.90
33095;DHT22;19459;53.044;8.910;2024-01-25T09:47:45;7.70;99.90
33095;DHT22;19459;53.044;8.910;2024-01-25T09:50:11;7.70;99.90
33095;DHT22;19459;53.044;8.910;2024-01-25T09:52:43;7.60;99.90
33095;DHT22;19459;53.044;8.910;2024-01-25T09:55:12;7.60;99.90
33095;DHT22;19459;53.044;8.910;2024-01-25T09:57:41;7.60;99.90
33095;DHT22;19459;53.044;8.910;2024-01-25T10:00:12;7.70;99.90
33095;DHT22;19459;53.044;8.910;2024-01-25T10:02:38;7.70;99.90
33095;DHT22;19459;53.044;8.910;2024-01-25T10:05:05;7.80;99.90
33095;DHT22;19459;53.044;8.910;2024-01-25T10:07:36;7.80;99.90
33095;DHT22;19459;53.044;8.910;2024-01-25T10:10:06;7.70;99.90
33095;DHT22;19459;53.044;8.910;2024-01-25T10:12:32;7.70;99.90
33095;DHT22;19459;53.044;8.910;2024-01-25T10:14:58;7.70;99.90
33095;DHT22;19459;53.044;8.910;2024-01-25T10:17:25;7.80;99.90
33095;DHT22;19459;53.044;8.910;2024-01-25T10:19:51;8.00;99.90
33095;DHT22;19459;53.044;8.910;2024-01-25T10:22:18;8.10;99.90
33095;DHT22;19459;53.044;8.910;2024-01-25T10:24:44;8.10;99.90
33095;DHT22;19459;53.044;8.910;2024-01-25T10:27:10;8.00;99.90
33095;DHT22;19459;53.044;8.910;2024-01-25T10:29:37;8.00;99.90
33095;DHT22;19459;53.044;8.910;2024-01-25T10:32:04;7.90;99.90
33095;DHT22;19459;53.044;8.910;2024-01-25T10:34:30;7.90;99.90
33095;DHT22;19459;53.044;8.910;2024-01-25T10:36:57;7.90;99.90
33095;DHT22;19459;53.044;8.910;2024-01-25T10:39:24;7.80;99.90
33095;DHT22;19459;53.044;8.910;2024-01-25T10:41:53;8.00;99.90
33095;DHT22;19459;53.044;8.910;2024-01-25T10:44:19;8.00;99.90
33095;DHT22;19459;53.044;8.910;2024-01-25T10:46:49;8.10;99.90
33095;DHT22;19459;53.044;8.910;2024-01-25T10:49:16;8.10;99.90
33095;DHT22;19459;53.044;8.910;2024-01-25T10:51:44;8.10;99.90
33095;DHT22;19459;53.044;8.910;2024-01-25T10:54:14;8.00;99.90
33095;DHT22;19459;53.044;8.910;2024-01-25T10:56:47;7.90;99.90
33095;DHT22;19459;53.044;8.910;2024-01-25T10:59:16;7.80;99.90
33095;DHT22;19459;53.044;8.910;2024-01-25T11:01:46;8.00;99.90
33095;DHT22;19459;53.044;8.910;2024-01-25T11:04:18;8.00;99.90
33095;DHT22;19459;53.044;8.910;2024-01-25T11:06:45;8.20;99.90
33095;DHT22;19459;53.044;8.910;2024-01-25T11:09:17;8.20;99.90
33095;DHT22;19459;53.044;8.910;2024-01-25T11:11:46;8.30;99.90
33095;DHT22;19459;53.044;8.910;2024-01-25T11:14:14;8.30;99.90
33095;DHT22;19459;53.044;8.910;2024-01-25T11:16:42;8.40;99.90
33095;DHT22;19459;53.044;8.910;2024-01-25T11:19:17;8.40;99.90
33095;DHT22;19459;53.044;8.910;2024-01-25T11:21:45;8.40;99.90
33095;DHT22;19459;53.044;8.910;2024-01-25T11:24:19;8.50;99.90
33095;DHT22;19459;53.044;8.910;2024-01-25T11:26:46;8.60;99.90
33095;DHT22;19459;53.044;8.910;2024-01-25T11:29:19;8.70;99.90
33095;DHT22;19459;53.044;8.910;2024-01-25T11:31:49;8.50;99.90
33095;DHT22;19459;53.044;8.910;2024-01-25T11:34:16;8.50;99.90
33095;DHT22;19459;53.044;8.910;2024-01-25T11:36:44;8.60;99.90
33095;DHT22;19459;53.044;8.910;2024-01-25T11:39:11;8.40;99.90
33095;DHT22;19459;53.044;8.910;2024-01-25T11:41:39;8.40;99.90
33095;DHT22;19459;53.044;8.910;2024-01-25T11:44:04;8.40;99.90
33095;DHT22;19459;53.044;8.910;2024-01-25T11:46:30;8.40;99.90
33095;DHT22;19459;53.044;8.910;2024-01-25T11:48:58;8.20;99.90
33095;DHT22;19459;53.044;8.910;2024-01-25T11:51:24;8.10;99.90
33095;DHT22;19459;53.044;8.910;2024-01-25T11:53:50;8.20;99.90
33095;DHT22;19459;53.044;8.910;2024-01-25T11:56:29;8.20;99.90
33095;DHT22;19459;53.044;8.910;2024-01-25T11:58:57;8.20;99.90
33095;DHT22;19459;53.044;8.910;2024-01-25T12:01:27;8.60;99.90
33095;DHT22;19459;53.044;8.910;2024-01-25T12:03:54;9.00;99.90
33095;DHT22;19459;53.044;8.910;2024-01-25T12:06:20;9.30;99.90
33095;DHT22;19459;53.044;8.910;2024-01-25T12:08:46;9.00;99.90
33095;DHT22;19459;53.044;8.910;2024-01-25T12:11:14;8.90;99.90
33095;DHT22;19459;53.044;8.910;2024-01-25T12:13:44;9.20;99.90
33095;DHT22;19459;53.044;8.910;2024-01-25T12:16:10;9.60;99.90
33095;DHT22;19459;53.044;8.910;2024-01-25T12:18:37;9.80;99.90
33095;DHT22;19459;53.044;8.910;2024-01-25T12:21:07;10.00;99.90
33095;DHT22;19459;53.044;8.910;2024-01-25T12:23:39;10.30;99.90
33095;DHT22;19459;53.044;8.910;2024-01-25T12:26:07;9.80;99.90
33095;DHT22;19459;53.044;8.910;2024-01-25T12:28:35;9.80;99.90
33095;DHT22;19459;53.044;8.910;2024-01-25T12:31:03;9.70;99.90
33095;DHT22;19459;53.044;8.910;2024-01-25T12:33:30;9.80;99.90
33095;DHT22;19459;53.044;8.910;2024-01-25T12:35:57;10.10;99.90
33095;DHT22;19459;53.044;8.910;2024-01-25T12:38:24;10.40;99.90
33095;DHT22;19459;53.044;8.910;2024-01-25T12:40:51;10.00;99.90
33095;DHT22;19459;53.044;8.910;2024-01-25T12:43:18;10.20;99.90
33095;DHT22;19459;53.044;8.910;2024-01-25T12:45:47;9.90;99.90
33095;DHT22;19459;53.044;8.910;2024-01-25T12:48:13;10.20;99.90
33095;DHT22;19459;53.044;8.910;2024-01-25T12:50:38;10.30;99.90
33095;DHT22;19459;53.044;8.910;2024-01-25T12:53:05;10.10;99.90
33095;DHT22;19459;53.044;8.910;2024-01-25T12:55:34;10.10;99.90
33095;DHT22;19459;53.044;8.910;2024-01-25T12:58:00;9.80;99.90
33095;DHT22;19459;53.044;8.910;2024-01-25T13:00:26;9.70;99.90
33095;DHT22;19459;53.044;8.910;2024-01-25T13:02:52;10.00;99.90
33095;DHT22;19459;53.044;8.910;2024-01-25T13:05:20;10.10;99.90
33095;DHT22;19459;53.044;8.910;2024-01-25T13:07:45;9.90;99.90
33095;DHT22;19459;53.044;8.910;2024-01-25T13:10:11;9.80;99.90
33095;DHT22;19459;53.044;8.910;2024-01-25T13:12:40;9.50;99.90
33095;DHT22;19459;53.044;8.910;2024-01-25T13:15:07;9.50;99.90
33095;DHT22;19459;53.044;8.910;2024-01-25T13:17:36;9.50;99.90
33095;DHT22;19459;53.044;8.910;2024-01-25T13:20:06;9.50;99.90
33095;DHT22;19459;53.044;8.910;2024-01-25T13:22:34;9.20;99.90
33095;DHT22;19459;53.044;8.910;2024-01-25T13:25:00;9.20;99.90
33095;DHT22;19459;53.044;8.910;2024-01-25T13:27:27;9.30;99.90
33095;DHT22;19459;53.044;8.910;2024-01-25T13:29:53;9.40;99.90
33095;DHT22;19459;53.044;8.910;2024-01-25T13:32:19;9.70;99.90
33095;DHT22;19459;53.044;8.910;2024-01-25T13:34:45;9.80;99.90
33095;DHT22;19459;53.044;8.910;2024-01-25T13:37:11;10.00;99.90
33095;DHT22;19459;53.044;8.910;2024-01-25T13:39:37;10.00;99.90
33095;DHT22;19459;53.044;8.910;2024-01-25T13:42:03;10.00;99.90
33095;DHT22;19459;53.044;8.910;2024-01-25T13:44:29;9.80;99.90
33095;DHT22;19459;53.044;8.910;2024-01-25T13:46:55;9.70;99.90
33095;DHT22;19459;53.044;8.910;2024-01-25T13:49:22;9.90;99.90
33095;DHT22;19459;53.044;8.910;2024-01-25T13:51:48;9.90;99.90
33095;DHT22;19459;53.044;8.910;2024-01-25T13:54:13;9.80;99.90
33095;DHT22;19459;53.044;8.910;2024-01-25T13:56:39;9.90;99.90
33095;DHT22;19459;53.044;8.910;2024-01-25T13:59:06;9.90;99.90
33095;DHT22;19459;53.044;8.910;2024-01-25T14:01:32;9.80;99.90
33095;DHT22;19459;53.044;8.910;2024-01-25T14:03:57;9.90;99.90
33095;DHT22;19459;53.044;8.910;2024-01-25T14:06:27;9.70;99.90
33095;DHT22;19459;53.044;8.910;2024-01-25T14:08:53;9.60;99.90
33095;DHT22;19459;53.044;8.910;2024-01-25T14:11:18;9.60;99.90
33095;DHT22;19459;53.044;8.910;2024-01-25T14:13:44;9.50;99.90
33095;DHT22;19459;53.044;8.910;2024-01-25T14:16:10;9.30;99.90
33095;DHT22;19459;53.044;8.910;2024-01-25T14:18:42;9.20;99.90
33095;DHT22;19459;53.044;8.910;2024-01-25T14:21:09;9.30;99.90
33095;DHT22;19459;53.044;8.910;2024-01-25T14:23:35;9.20;99.90
33095;DHT22;19459;53.044;8.910;2024-01-25T14:26:00;9.20;99.90
33095;DHT22;19459;53.044;8.910;2024-01-25T14:28:26;9.20;99.90
33095;DHT22;19459;53.044;8.910;2024-01-25T14:30:52;9.20;99.90
33095;DHT22;19459;53.044;8.910;2024-01-25T14:33:18;9.30;99.90
33095;DHT22;19459;53.044;8.910;2024-01-25T14:35:43;9.40;99.90
33095;DHT22;19459;53.044;8.910;2024-01-25T14:38:09;9.50;99.90
33095;DHT22;19459;53.044;8.910;2024-01-25T14:40:35;9.50;99.90
33095;DHT22;19459;53.044;8.910;2024-01-25T14:43:01;9.30;99.90
33095;DHT22;19459;53.044;8.910;2024-01-25T14:45:27;9.20;99.90
33095;DHT22;19459;53.044;8.910;2024-01-25T14:47:55;9.10;99.90
33095;DHT22;19459;53.044;8.910;2024-01-25T14:50:21;9.10;99.90
33095;DHT22;19459;53.044;8.910;2024-01-25T14:52:47;9.10;99.90
33095;DHT22;19459;53.044;8.910;2024-01-25T14:55:13;9.20;99.90
33095;DHT22;19459;53.044;8.910;2024-01-25T14:57:39;9.10;99.90
33095;DHT22;19459;53.044;8.910;2024-01-25T15:00:05;9.10;99.90
33095;DHT22;19459;53.044;8.910;2024-01-25T15:02:33;9.00;99.90
33095;DHT22;19459;53.044;8.910;2024-01-25T15:04:59;9.00;99.90
33095;DHT22;19459;53.044;8.910;2024-01-25T15:07:24;8.90;99.90
33095;DHT22;19459;53.044;8.910;2024-01-25T15:09:50;8.80;99.90
33095;DHT22;19459;53.044;8.910;2024-01-25T15:12:17;8.60;99.90
33095;DHT22;19459;53.044;8.910;2024-01-25T15:14:45;8.50;99.90
33095;DHT22;19459;53.044;8.910;2024-01-25T15:17:11;8.30;99.90
33095;DHT22;19459;53.044;8.910;2024-01-25T15:19:36;8.30;99.90
33095;DHT22;19459;53.044;8.910;2024-01-25T15:22:03;8.20;99.90
33095;DHT22;19459;53.044;8.910;2024-01-25T15:24:33;8.20;99.90
33095;DHT22;19459;53.044;8.910;2024-01-25T15:26:59;8.10;99.90
33095;DHT22;19459;53.044;8.910;2024-01-25T15:29:24;8.10;99.90
33095;DHT22;19459;53.044;8.910;2024-01-25T15:31:50;8.00;99.90
33095;DHT22;19459;53.044;8.910;2024-01-25T15:34:16;7.90;99.90
33095;DHT22;19459;53.044;8.910;2024-01-25T15:36:44;7.90;99.90
33095;DHT22;19459;53.044;8.910;2024-01-25T15:39:10;7.90;99.90
33095;DHT22;19459;53.044;8.910;2024-01-25T15:41:36;7.80;99.90
33095;DHT22;19459;53.044;8.910;2024-01-25T15:44:02;7.70;99.90